Time;durP1;ratioP1;P1;durP2;ratioP2;P2;SDS_P1;SDS_P2;PMS_P1;PMS_P2;Temp;Humidity;BMP_temperature;BMP_pressure;BME280_temperature;BME280_humidity;BME280_pressure;Samples;Min_cycle;Max_cycle;Signal;HPM_P1;HPM_P2
2021/01/20 00:01:30;;;;;;;9.13;4.30;;;7.10;99.90;;;;;;5025180;28;20626;-72
2021/01/20 00:03:56;;;;;;;7.83;5.20;;;7.10;99.90;;;;;;5046852;28;20713;-74
2021/01/20 00:06:23;;;;;;;6.53;4.43;;;7.10;99.90;;;;;;5035934;28;20241;-75
2021/01/20 00:08:49;;;;;;;8.93;5.03;;;7.10;99.90;;;;;;5018407;28;20201;-73
2021/01/20 00:11:16;;;;;;;8.63;5.27;;;7.00;99.90;;;;;;5047386;28;20209;-73
2021/01/20 00:13:42;;;;;;;11.47;4.97;;;7.00;99.90;;;;;;5026036;28;20240;-73
2021/01/20 00:16:08;;;;;;;8.07;4.50;;;7.00;99.90;;;;;;5030265;28;20237;-73
2021/01/20 00:18:35;;;;;;;6.30;4.23;;;7.00;99.90;;;;;;5015158;28;20598;-73
2021/01/20 00:21:01;;;;;;;7.83;5.03;;;6.90;99.90;;;;;;5037849;28;20277;-75
2021/01/20 00:23:28;;;;;;;9.93;4.63;;;6.90;99.90;;;;;;5043630;28;20272;-76
2021/01/20 00:25:54;;;;;;;5.80;3.97;;;7.00;99.90;;;;;;5030431;28;20613;-73
2021/01/20 00:28:20;;;;;;;5.50;4.17;;;6.90;99.90;;;;;;5042167;28;21020;-73
2021/01/20 00:30:47;;;;;;;10.23;4.70;;;7.00;99.90;;;;;;5049357;28;20251;-73
2021/01/20 00:33:13;;;;;;;5.83;4.07;;;7.00;99.90;;;;;;5034586;28;20197;-73
2021/01/20 00:35:40;;;;;;;8.37;3.90;;;7.00;99.90;;;;;;5027506;28;20248;-77
2021/01/20 00:38:06;;;;;;;8.03;4.20;;;7.00;99.90;;;;;;5051572;28;20202;-73
2021/01/20 00:40:33;;;;;;;6.17;3.20;;;7.00;99.90;;;;;;5025157;28;20242;-73
2021/01/20 00:42:59;;;;;;;4.70;3.17;;;7.00;99.90;;;;;;5015935;28;20242;-73
2021/01/20 00:45:26;;;;;;;6.60;3.37;;;7.00;99.90;;;;;;5028374;28;20616;-74
2021/01/20 00:47:52;;;;;;;6.30;3.87;;;7.00;99.90;;;;;;5030392;28;21747;-72
2021/01/20 00:50:19;;;;;;;11.03;4.20;;;7.00;99.90;;;;;;5046835;28;20278;-73
2021/01/20 00:52:45;;;;;;;7.37;3.93;;;7.00;99.90;;;;;;5036331;28;20207;-74
2021/01/20 00:55:14;;;;;;;7.53;4.53;;;7.10;99.90;;;;;;5011312;28;20602;-73
2021/01/20 00:57:41;;;;;;;5.40;3.80;;;7.00;99.90;;;;;;5019039;28;20284;-74
2021/01/20 01:00:09;;;;;;;7.53;3.83;;;7.00;99.90;;;;;;5021255;28;20217;-73
2021/01/20 01:02:38;;;;;;;7.03;3.27;;;7.00;99.90;;;;;;5043354;28;20205;-73
2021/01/20 01:05:05;;;;;;;5.47;3.80;;;7.00;99.90;;;;;;5038054;28;20292;-75
2021/01/20 01:07:32;;;;;;;8.93;3.67;;;7.00;99.90;;;;;;5038625;28;20285;-76
2021/01/20 01:09:58;;;;;;;6.70;4.17;;;7.00;99.90;;;;;;5062153;28;20228;-73
2021/01/20 01:12:24;;;;;;;7.27;3.73;;;7.00;99.90;;;;;;5008668;28;20569;-73
2021/01/20 01:14:50;;;;;;;11.43;3.47;;;7.00;99.90;;;;;;5030809;28;20267;-74
2021/01/20 01:17:17;;;;;;;7.57;3.80;;;7.00;99.90;;;;;;5023475;28;20266;-73
2021/01/20 01:19:43;;;;;;;8.10;3.70;;;7.10;99.90;;;;;;5033858;28;20268;-74
2021/01/20 01:22:10;;;;;;;8.60;4.10;;;7.00;99.90;;;;;;5045430;28;20275;-73
2021/01/20 01:24:36;;;;;;;6.53;3.60;;;7.00;99.90;;;;;;5046972;28;20613;-73
2021/01/20 01:27:02;;;;;;;7.90;3.70;;;7.00;99.90;;;;;;5019058;28;20981;-72
2021/01/20 01:29:29;;;;;;;5.70;3.57;;;7.00;99.90;;;;;;5027130;28;20633;-73
2021/01/20 01:31:55;;;;;;;5.93;3.30;;;7.00;99.90;;;;;;5020780;28;20210;-73
2021/01/20 01:34:22;;;;;;;7.30;3.73;;;7.00;99.90;;;;;;5058589;28;20258;-73
2021/01/20 01:36:48;;;;;;;9.43;4.23;;;7.00;99.90;;;;;;5046458;28;20308;-75
2021/01/20 01:39:15;;;;;;;5.43;3.73;;;7.00;99.90;;;;;;5018912;28;20286;-74
2021/01/20 01:41:42;;;;;;;6.97;4.30;;;7.00;99.90;;;;;;5042466;28;20228;-73
2021/01/20 01:44:08;;;;;;;6.70;3.90;;;7.00;99.90;;;;;;5032107;28;20273;-74
2021/01/20 01:46:35;;;;;;;8.10;3.57;;;7.00;99.90;;;;;;5045012;28;20688;-75
2021/01/20 01:49:02;;;;;;;6.10;4.23;;;7.00;99.90;;;;;;5022232;28;20207;-73
2021/01/20 01:51:28;;;;;;;10.00;3.23;;;7.00;99.90;;;;;;5022679;28;20747;-74
2021/01/20 01:53:55;;;;;;;5.40;3.37;;;7.00;99.90;;;;;;5047761;28;20198;-74
2021/01/20 01:56:25;;;;;;;7.60;3.90;;;7.10;99.90;;;;;;5012780;28;20719;-74
2021/01/20 01:58:52;;;;;;;7.73;4.17;;;7.00;99.90;;;;;;5027566;28;21009;-73
2021/01/20 02:01:19;;;;;;;7.13;3.53;;;7.00;99.90;;;;;;5017242;28;20204;-74
2021/01/20 02:03:52;;;;;;;7.07;3.93;;;7.00;99.90;;;;;;5043108;28;20194;-73
2021/01/20 02:06:19;;;;;;;6.60;3.63;;;7.10;99.90;;;;;;5026360;28;20279;-74
2021/01/20 02:08:48;;;;;;;4.70;2.77;;;7.00;99.90;;;;;;5047700;28;20278;-73
2021/01/20 02:11:45;;;;;;;7.17;3.83;;;7.00;99.90;;;;;;5044975;28;20228;-73
2021/01/20 02:14:41;;;;;;;7.40;4.03;;;7.00;99.90;;;;;;5025342;28;20230;-73
2021/01/20 02:17:21;;;;;;;8.13;3.67;;;6.90;99.90;;;;;;5042477;28;20289;-73
2021/01/20 02:20:03;;;;;;;7.50;4.17;;;6.90;99.90;;;;;;5063701;28;20602;-74
2021/01/20 02:22:40;;;;;;;5.10;3.73;;;6.90;99.90;;;;;;5039930;28;20351;-74
2021/01/20 02:25:31;;;;;;;8.47;4.60;;;7.00;99.90;;;;;;5047482;28;20653;-73
2021/01/20 02:28:14;;;;;;;4.80;3.80;;;7.00;99.90;;;;;;5053130;28;20300;-73
2021/01/20 02:30:45;;;;;;;6.73;3.90;;;7.00;99.90;;;;;;5040547;28;20208;-73
2021/01/20 02:33:15;;;;;;;5.50;4.20;;;7.00;99.90;;;;;;5047123;28;20194;-74
2021/01/20 02:35:42;;;;;;;6.93;3.93;;;6.90;99.90;;;;;;5023040;28;20204;-73
2021/01/20 02:38:09;;;;;;;6.40;4.20;;;6.80;99.90;;;;;;5026061;28;20207;-74
2021/01/20 02:40:35;;;;;;;9.77;4.10;;;6.80;99.90;;;;;;5021560;28;20610;-74
2021/01/20 02:43:02;;;;;;;6.17;4.00;;;6.70;99.90;;;;;;5031576;28;20604;-75
2021/01/20 02:45:28;;;;;;;6.30;3.90;;;6.70;99.90;;;;;;5036151;28;20251;-74
2021/01/20 02:47:55;;;;;;;10.13;3.73;;;6.70;99.90;;;;;;5029602;28;20218;-74
2021/01/20 02:50:22;;;;;;;6.03;3.00;;;6.80;99.90;;;;;;5035825;28;20240;-74
2021/01/20 02:52:57;;;;;;;7.90;4.13;;;6.70;99.90;;;;;;5044683;28;20315;-74
2021/01/20 02:55:26;;;;;;;6.70;3.47;;;6.70;99.90;;;;;;5036985;28;20675;-74
2021/01/20 02:57:58;;;;;;;7.13;3.90;;;6.80;99.90;;;;;;5042803;28;20301;-74
2021/01/20 03:00:26;;;;;;;6.23;3.67;;;6.80;99.90;;;;;;5040058;28;20227;-73
2021/01/20 03:02:54;;;;;;;7.23;3.80;;;6.90;99.90;;;;;;5043943;28;20202;-74
2021/01/20 03:05:21;;;;;;;7.53;4.10;;;6.90;99.90;;;;;;5038014;28;20204;-75
2021/01/20 03:07:47;;;;;;;9.00;3.13;;;7.00;99.90;;;;;;5009636;28;21131;-73
2021/01/20 03:10:14;;;;;;;5.90;3.97;;;7.00;99.90;;;;;;5043852;28;20200;-74
2021/01/20 03:12:43;;;;;;;7.33;4.10;;;7.10;99.90;;;;;;5042281;28;20294;-75
2021/01/20 03:15:28;;;;;;;5.97;3.73;;;7.10;99.90;;;;;;5044973;28;20658;-73
2021/01/20 03:17:54;;;;;;;5.73;3.40;;;7.20;99.90;;;;;;5036757;28;20654;-75
2021/01/20 03:20:21;;;;;;;5.67;3.37;;;7.20;99.90;;;;;;5030068;28;20343;-73
2021/01/20 03:22:47;;;;;;;5.10;3.40;;;7.30;99.90;;;;;;5030372;28;20519;-73
2021/01/20 03:25:14;;;;;;;6.03;3.70;;;7.30;99.90;;;;;;5046965;28;20215;-74
2021/01/20 03:27:40;;;;;;;5.70;3.23;;;7.40;99.90;;;;;;5042379;28;20288;-74
2021/01/20 03:30:07;;;;;;;4.93;3.40;;;7.40;99.90;;;;;;5038021;28;20247;-74
2021/01/20 03:32:34;;;;;;;6.23;3.67;;;7.40;99.90;;;;;;5020892;28;20267;-73
2021/01/20 03:35:00;;;;;;;6.80;2.67;;;7.40;99.90;;;;;;5044051;28;20282;-75
2021/01/20 03:37:27;;;;;;;4.10;2.57;;;7.40;99.90;;;;;;5052020;28;20250;-74
2021/01/20 03:39:53;;;;;;;4.20;2.67;;;7.40;99.90;;;;;;5007291;28;20442;-73
2021/01/20 03:42:20;;;;;;;5.03;3.90;;;7.40;99.90;;;;;;5029670;28;20302;-73
2021/01/20 03:44:46;;;;;;;5.37;3.13;;;7.50;99.90;;;;;;5052771;28;20296;-74
2021/01/20 03:47:12;;;;;;;7.23;3.57;;;7.50;99.90;;;;;;5037783;28;20218;-74
2021/01/20 03:49:38;;;;;;;6.67;3.70;;;7.50;99.90;;;;;;5035270;28;20301;-75
2021/01/20 03:52:05;;;;;;;4.53;2.67;;;7.50;99.90;;;;;;5027113;28;20608;-73
2021/01/20 03:54:31;;;;;;;4.97;3.20;;;7.50;99.90;;;;;;5065947;28;20200;-73
2021/01/20 03:56:57;;;;;;;5.30;3.43;;;7.50;99.90;;;;;;5013131;28;20258;-74
2021/01/20 03:59:24;;;;;;;5.47;3.00;;;7.50;99.90;;;;;;5050192;28;20571;-74
2021/01/20 04:01:50;;;;;;;4.77;2.83;;;7.60;99.90;;;;;;5033039;28;20332;-74
2021/01/20 04:04:17;;;;;;;4.30;3.17;;;7.60;99.90;;;;;;5070574;28;20203;-73
2021/01/20 04:06:45;;;;;;;4.90;2.90;;;7.60;99.90;;;;;;5006382;28;20303;-74
2021/01/20 04:09:11;;;;;;;3.60;2.57;;;7.60;99.90;;;;;;5044393;28;20247;-74
2021/01/20 04:11:38;;;;;;;5.80;3.00;;;7.60;99.90;;;;;;5013949;28;20714;-74
2021/01/20 04:14:04;;;;;;;3.70;3.20;;;7.60;99.90;;;;;;5028678;28;20505;-75
2021/01/20 04:16:30;;;;;;;4.67;2.73;;;7.70;99.90;;;;;;5045441;28;20219;-74
2021/01/20 04:18:57;;;;;;;10.23;3.23;;;7.70;99.90;;;;;;5058584;28;20255;-74
2021/01/20 04:21:23;;;;;;;4.93;2.93;;;7.60;99.90;;;;;;5032589;28;20352;-73
2021/01/20 04:23:49;;;;;;;5.43;3.00;;;7.60;99.90;;;;;;5014281;28;20629;-74
2021/01/20 04:26:16;;;;;;;4.60;2.90;;;7.70;99.90;;;;;;5033514;28;20215;-76
2021/01/20 04:28:43;;;;;;;3.93;2.50;;;7.70;99.90;;;;;;5017257;28;20220;-75
2021/01/20 04:31:09;;;;;;;3.83;2.60;;;7.70;99.90;;;;;;5027148;28;20218;-77
2021/01/20 04:33:36;;;;;;;5.40;2.60;;;7.70;99.90;;;;;;5051564;28;20280;-74
2021/01/20 04:36:02;;;;;;;6.07;2.80;;;7.70;99.90;;;;;;5031171;28;20196;-74
2021/01/20 04:38:28;;;;;;;6.27;3.10;;;7.70;99.90;;;;;;5025893;28;20555;-74
2021/01/20 04:40:56;;;;;;;4.17;2.57;;;7.70;99.90;;;;;;5045625;28;20222;-73
2021/01/20 04:43:24;;;;;;;4.17;2.93;;;7.80;99.90;;;;;;5033641;28;20694;-73
2021/01/20 04:45:52;;;;;;;3.57;2.70;;;7.80;99.90;;;;;;5037814;28;20684;-74
2021/01/20 04:48:19;;;;;;;5.30;3.23;;;7.80;99.90;;;;;;5039629;28;20729;-75
2021/01/20 04:50:47;;;;;;;4.40;2.97;;;7.90;99.90;;;;;;5034468;28;20197;-73
2021/01/20 04:53:14;;;;;;;2.97;2.27;;;7.90;99.90;;;;;;5041577;28;20219;-74
2021/01/20 04:55:44;;;;;;;8.07;3.17;;;7.80;99.90;;;;;;5059833;28;20254;-73
2021/01/20 04:58:29;;;;;;;3.50;2.60;;;7.80;99.90;;;;;;5011396;28;20208;-75
2021/01/20 05:00:56;;;;;;;4.40;3.00;;;7.80;99.90;;;;;;5048052;28;20204;-74
2021/01/20 05:03:26;;;;;;;4.17;2.60;;;7.90;99.90;;;;;;5032050;28;20200;-79
2021/01/20 05:05:54;;;;;;;4.63;3.00;;;7.90;99.90;;;;;;5023051;28;20617;-74
2021/01/20 05:08:22;;;;;;;3.07;2.70;;;7.90;99.90;;;;;;5010461;28;20315;-75
2021/01/20 05:10:49;;;;;;;4.70;2.60;;;7.90;99.90;;;;;;5066758;28;20224;-74
2021/01/20 05:13:32;;;;;;;4.17;2.57;;;7.90;99.90;;;;;;5019662;28;20200;-74
2021/01/20 05:15:58;;;;;;;3.87;2.37;;;7.90;99.90;;;;;;5035022;28;20203;-75
2021/01/20 05:18:25;;;;;;;3.47;2.33;;;8.00;99.90;;;;;;5046593;28;20250;-75
2021/01/20 05:20:52;;;;;;;4.80;2.83;;;8.00;99.90;;;;;;5030496;28;20258;-75
2021/01/20 05:23:26;;;;;;;3.50;2.23;;;8.10;99.90;;;;;;5048520;28;20224;-77
2021/01/20 05:25:52;;;;;;;4.63;2.40;;;8.10;99.90;;;;;;5044247;28;20667;-73
2021/01/20 05:28:26;;;;;;;3.37;2.30;;;8.10;99.90;;;;;;5027406;28;20362;-73
2021/01/20 05:30:55;;;;;;;3.70;2.60;;;8.10;99.90;;;;;;5032540;28;20223;-73
2021/01/20 05:33:23;;;;;;;5.13;2.77;;;8.10;99.90;;;;;;5037919;28;20205;-74
2021/01/20 05:36:06;;;;;;;4.73;2.70;;;8.10;99.90;;;;;;5026630;28;20221;-74
2021/01/20 05:38:45;;;;;;;2.43;2.03;;;8.20;99.90;;;;;;5061941;28;20254;-74
2021/01/20 05:41:23;;;;;;;3.83;2.30;;;8.20;99.90;;;;;;5039593;28;20231;-73
2021/01/20 05:43:52;;;;;;;6.83;2.17;;;8.20;99.90;;;;;;5048108;28;20292;-73
2021/01/20 05:46:35;;;;;;;4.00;2.33;;;8.20;99.90;;;;;;5025885;28;20658;-75
2021/01/20 05:49:03;;;;;;;2.27;1.90;;;8.20;99.90;;;;;;5030836;28;20323;-74
2021/01/20 05:51:40;;;;;;;2.83;2.10;;;8.30;99.90;;;;;;5041205;28;20330;-73
2021/01/20 05:54:08;;;;;;;5.00;1.90;;;8.30;99.90;;;;;;5034241;28;20203;-74
2021/01/20 05:56:35;;;;;;;5.50;1.77;;;8.30;99.90;;;;;;5031433;28;20199;-75
2021/01/20 05:59:01;;;;;;;3.13;2.03;;;8.30;99.90;;;;;;5041011;28;20266;-74
2021/01/20 06:01:28;;;;;;;2.90;1.90;;;8.30;99.90;;;;;;5038475;28;20196;-74
2021/01/20 06:03:55;;;;;;;3.93;1.90;;;8.30;99.90;;;;;;5013979;28;20273;-75
2021/01/20 06:06:21;;;;;;;2.70;2.00;;;8.30;99.90;;;;;;5020275;28;20724;-76
2021/01/20 06:08:48;;;;;;;3.30;1.90;;;8.30;99.90;;;;;;5035253;28;20254;-75
2021/01/20 06:11:14;;;;;;;1.73;1.43;;;8.30;99.90;;;;;;5033555;28;20593;-75
2021/01/20 06:13:41;;;;;;;2.30;1.70;;;8.40;99.90;;;;;;5029156;28;20257;-74
2021/01/20 06:16:14;;;;;;;2.93;1.83;;;8.30;99.90;;;;;;5041248;28;20196;-75
2021/01/20 06:19:08;;;;;;;3.60;2.13;;;8.30;99.90;;;;;;5048289;28;20279;-74
2021/01/20 06:21:41;;;;;;;6.93;1.90;;;8.30;99.90;;;;;;5036027;28;20270;-76
2021/01/20 06:24:16;;;;;;;2.77;1.53;;;8.30;99.90;;;;;;5050286;28;20199;-76
2021/01/20 06:26:50;;;;;;;8.00;2.13;;;8.30;99.90;;;;;;5043029;28;20579;-74
2021/01/20 06:29:23;;;;;;;4.27;1.50;;;8.30;99.90;;;;;;5046042;28;20211;-75
2021/01/20 06:31:52;;;;;;;3.13;1.73;;;8.30;99.90;;;;;;5025068;28;20554;-76
2021/01/20 06:34:19;;;;;;;2.97;1.67;;;8.30;99.90;;;;;;5025631;28;20299;-74
2021/01/20 06:36:45;;;;;;;4.07;1.90;;;8.30;99.90;;;;;;5056191;28;20207;-75
2021/01/20 06:39:26;;;;;;;2.83;1.77;;;8.30;99.90;;;;;;5039325;28;20236;-76
2021/01/20 06:41:53;;;;;;;2.57;1.57;;;8.30;99.90;;;;;;5031515;28;20274;-75
2021/01/20 06:44:20;;;;;;;1.90;1.40;;;8.40;99.90;;;;;;5027080;28;20242;-74
2021/01/20 06:46:56;;;;;;;3.47;1.90;;;8.30;99.90;;;;;;5048762;28;20580;-74
2021/01/20 06:49:32;;;;;;;2.37;1.57;;;8.30;99.90;;;;;;5038518;28;20227;-74
2021/01/20 06:52:25;;;;;;;2.20;1.73;;;8.40;99.90;;;;;;5040609;28;20280;-74
2021/01/20 06:54:51;;;;;;;3.07;1.80;;;8.40;99.90;;;;;;5030174;28;20565;-74
2021/01/20 06:57:27;;;;;;;3.33;1.10;;;8.40;99.90;;;;;;5063965;28;20227;-74
2021/01/20 07:00:15;;;;;;;1.93;1.40;;;8.40;99.90;;;;;;5023201;28;20200;-74
2021/01/20 07:02:59;;;;;;;2.90;1.40;;;8.40;99.90;;;;;;5046287;28;20255;-75
2021/01/20 07:05:39;;;;;;;2.47;1.50;;;8.40;99.90;;;;;;5055119;28;20650;-74
2021/01/20 07:08:10;;;;;;;1.73;1.30;;;8.30;99.90;;;;;;5030134;28;20219;-74
2021/01/20 07:10:59;;;;;;;2.23;1.83;;;8.30;99.90;;;;;;5042690;28;20672;-74
2021/01/20 07:13:38;;;;;;;3.13;1.43;;;8.30;99.90;;;;;;5027655;28;20216;-74
2021/01/20 07:16:07;;;;;;;2.07;1.43;;;8.30;99.90;;;;;;5039757;28;20207;-73
2021/01/20 07:18:38;;;;;;;1.50;1.27;;;8.30;99.90;;;;;;5048980;28;20564;-73
2021/01/20 07:21:07;;;;;;;2.30;1.60;;;8.30;99.90;;;;;;5034342;28;20603;-72
2021/01/20 07:23:34;;;;;;;2.67;1.50;;;8.20;99.90;;;;;;5036806;28;20214;-72
2021/01/20 07:26:08;;;;;;;3.50;1.60;;;8.20;99.90;;;;;;5022305;28;20208;-73
2021/01/20 07:28:36;;;;;;;4.70;1.90;;;8.20;99.90;;;;;;5045630;28;20224;-75
2021/01/20 07:31:07;;;;;;;2.03;1.70;;;8.20;99.90;;;;;;5044867;28;20228;-75
2021/01/20 07:33:34;;;;;;;2.77;1.93;;;8.10;99.90;;;;;;5047609;28;20357;-73
2021/01/20 07:36:16;;;;;;;3.43;2.03;;;8.10;99.90;;;;;;5025704;28;20275;-74
2021/01/20 07:38:47;;;;;;;3.47;1.80;;;8.10;99.90;;;;;;5041737;28;20215;-75
2021/01/20 07:41:21;;;;;;;6.67;1.93;;;8.10;99.90;;;;;;5013200;28;20273;-74
2021/01/20 07:43:52;;;;;;;1.70;1.30;;;8.00;99.90;;;;;;5039214;28;20267;-73
2021/01/20 07:46:21;;;;;;;2.63;1.80;;;8.00;99.90;;;;;;5052027;28;20275;-73
2021/01/20 07:48:49;;;;;;;4.00;1.63;;;8.00;99.90;;;;;;5037754;28;20251;-73
2021/01/20 07:51:20;;;;;;;3.00;1.40;;;8.00;99.90;;;;;;5040143;28;20629;-73
2021/01/20 07:54:00;;;;;;;3.80;1.90;;;7.90;99.90;;;;;;5039835;28;22217;-73
2021/01/20 07:56:26;;;;;;;2.40;1.40;;;7.90;99.90;;;;;;5037333;28;20651;-75
2021/01/20 07:58:53;;;;;;;2.10;1.83;;;7.80;99.90;;;;;;5039593;28;20203;-73
2021/01/20 08:01:29;;;;;;;2.07;1.47;;;7.80;99.90;;;;;;5041485;28;20236;-73
2021/01/20 08:03:58;;;;;;;3.37;1.97;;;7.80;99.90;;;;;;5046374;28;20232;-74
2021/01/20 08:06:40;;;;;;;2.47;1.50;;;7.80;99.90;;;;;;5036305;28;20204;-73
2021/01/20 08:09:06;;;;;;;2.57;2.13;;;7.80;99.90;;;;;;5039354;28;20665;-73
2021/01/20 08:11:33;;;;;;;4.47;1.60;;;7.80;99.90;;;;;;5036005;28;20271;-74
2021/01/20 08:14:02;;;;;;;3.00;1.80;;;7.80;99.90;;;;;;5040875;28;20602;-73
2021/01/20 08:16:35;;;;;;;2.23;1.37;;;7.80;99.90;;;;;;5043164;28;20208;-74
2021/01/20 08:19:06;;;;;;;2.00;1.43;;;7.90;99.90;;;;;;5021658;28;20652;-74
2021/01/20 08:21:33;;;;;;;1.87;1.60;;;7.90;99.90;;;;;;5042962;28;20203;-73
2021/01/20 08:24:05;;;;;;;2.23;1.70;;;7.90;99.90;;;;;;5026362;28;20648;-74
2021/01/20 08:26:33;;;;;;;2.00;1.23;;;7.90;99.90;;;;;;5046524;28;20511;-73
2021/01/20 08:29:07;;;;;;;3.23;1.47;;;7.90;99.90;;;;;;5048002;28;20207;-77
2021/01/20 08:31:35;;;;;;;3.40;1.43;;;7.90;99.90;;;;;;5053620;28;20207;-74
2021/01/20 08:34:17;;;;;;;2.27;1.40;;;7.90;99.90;;;;;;5032721;28;20511;-74
2021/01/20 08:37:08;;;;;;;4.43;2.30;;;8.00;99.90;;;;;;5050002;28;20207;-73
2021/01/20 08:39:37;;;;;;;1.63;1.40;;;8.00;99.90;;;;;;5025720;28;20275;-75
2021/01/20 08:42:26;;;;;;;2.43;1.33;;;8.10;99.90;;;;;;5035278;28;20232;-76
2021/01/20 08:45:21;;;;;;;2.33;1.20;;;8.10;99.90;;;;;;5067432;28;20231;-74
2021/01/20 08:47:57;;;;;;;2.20;1.50;;;8.20;99.90;;;;;;5044636;28;20355;-73
2021/01/20 08:50:27;;;;;;;1.20;0.90;;;8.20;99.90;;;;;;5044004;28;20200;-74
2021/01/20 08:53:25;;;;;;;1.73;1.20;;;8.30;99.90;;;;;;5041228;28;20295;-75
2021/01/20 08:55:53;;;;;;;2.90;1.77;;;8.40;99.90;;;;;;5028637;28;20451;-73
2021/01/20 08:58:33;;;;;;;2.23;1.47;;;8.40;99.90;;;;;;5042654;28;20211;-73
2021/01/20 09:01:27;;;;;;;3.20;1.50;;;8.50;99.90;;;;;;5039621;28;20219;-75
2021/01/20 09:03:58;;;;;;;2.63;1.17;;;8.50;99.90;;;;;;5020541;28;20235;-73
2021/01/20 09:06:27;;;;;;;1.10;0.90;;;8.50;99.90;;;;;;5032663;28;20200;-75
2021/01/20 09:08:56;;;;;;;2.60;1.20;;;8.50;99.90;;;;;;5041632;28;20208;-74
2021/01/20 09:11:23;;;;;;;2.43;1.30;;;8.60;99.90;;;;;;5025326;28;20200;-74
2021/01/20 09:13:50;;;;;;;3.17;1.53;;;8.60;99.90;;;;;;5036425;28;20214;-75
2021/01/20 09:16:27;;;;;;;2.93;1.30;;;8.60;99.90;;;;;;5037214;28;21252;-75
2021/01/20 09:18:54;;;;;;;3.13;1.07;;;8.60;99.90;;;;;;5032343;28;20200;-75
2021/01/20 09:21:21;;;;;;;2.20;1.47;;;8.70;99.90;;;;;;5035427;28;20204;-75
2021/01/20 09:23:51;;;;;;;2.33;1.17;;;8.70;44.40;;;;;;5017154;28;20204;-75
2021/01/20 09:26:18;;;;;;;1.43;0.90;;;8.80;26.40;;;;;;5021624;28;21148;-75
2021/01/20 09:28:44;;;;;;;1.70;0.90;;;8.80;11.30;;;;;;5006867;28;20232;-76
2021/01/20 09:31:11;;;;;;;2.30;1.30;;;8.90;1.00;;;;;;5023459;28;20197;-74
2021/01/20 09:33:37;;;;;;;1.63;1.33;;;9.10;6.00;;;;;;5036714;28;20344;-74
2021/01/20 09:36:04;;;;;;;0.83;0.60;;;9.10;1.00;;;;;;5023172;28;20204;-75
2021/01/20 09:38:30;;;;;;;2.27;1.30;;;9.00;1.00;;;;;;5037119;28;20704;-75
2021/01/20 09:41:00;;;;;;;2.30;1.53;;;9.00;1.00;;;;;;5050547;28;20675;-74
2021/01/20 09:43:26;;;;;;;3.17;1.27;;;9.20;1.00;;;;;;5038279;28;20199;-75
2021/01/20 09:45:52;;;;;;;1.33;1.10;;;9.20;1.00;;;;;;5039188;28;21091;-75
2021/01/20 09:48:19;;;;;;;3.73;1.60;;;9.30;1.00;;;;;;5025998;28;20228;-74
2021/01/20 09:50:45;;;;;;;2.10;1.20;;;9.30;99.90;;;;;;5028944;28;20695;-74
2021/01/20 09:53:12;;;;;;;1.87;0.97;;;9.30;1.00;;;;;;5018294;28;20593;-74
2021/01/20 09:55:39;;;;;;;2.37;0.97;;;9.30;1.00;;;;;;5036445;28;20204;-74
2021/01/20 09:58:05;;;;;;;1.73;1.17;;;9.30;99.90;;;;;;5033575;28;20199;-74
2021/01/20 10:00:34;;;;;;;1.43;0.93;;;9.30;99.90;;;;;;5023379;28;20208;-74
2021/01/20 10:03:04;;;;;;;1.90;1.40;;;9.30;1.00;;;;;;5023463;28;20264;-74
2021/01/20 10:05:31;;;;;;;1.90;0.87;;;9.30;1.00;;;;;;5036685;28;20249;-74
2021/01/20 10:07:57;;;;;;;1.40;1.10;;;9.30;99.90;;;;;;5035756;28;20216;-74
2021/01/20 10:10:24;;;;;;;2.80;1.30;;;9.40;69.90;;;;;;5033362;28;20201;-74
2021/01/20 10:12:54;;;;;;;1.87;1.10;;;9.40;99.90;;;;;;5018701;28;20263;-73
2021/01/20 10:15:21;;;;;;;1.30;1.20;;;9.50;1.00;;;;;;5037841;28;21053;-73
2021/01/20 10:17:49;;;;;;;2.37;1.13;;;9.50;1.00;;;;;;5040785;28;20263;-74
2021/01/20 10:20:16;;;;;;;2.87;1.20;;;9.50;99.90;;;;;;5003451;28;20254;-73
2021/01/20 10:22:42;;;;;;;4.30;1.23;;;9.50;1.00;;;;;;5034187;28;24337;-74
2021/01/20 10:25:09;;;;;;;6.13;1.50;;;9.50;1.00;;;;;;5020642;28;20270;-73
2021/01/20 10:27:35;;;;;;;1.77;0.97;;;9.50;99.90;;;;;;5050412;28;20293;-73
2021/01/20 10:30:03;;;;;;;1.03;0.80;;;9.50;99.90;;;;;;5031289;28;20204;-73
2021/01/20 10:32:29;;;;;;;1.70;1.07;;;9.50;1.00;;;;;;5034184;28;20572;-74
2021/01/20 10:34:56;;;;;;;2.58;0.75;;;9.50;1.00;;;;;;5036514;28;20138;-74
2021/01/20 10:37:22;;;;;;;2.60;1.77;;;9.50;1.00;;;;;;5020988;28;20532;-73
2021/01/20 10:39:48;;;;;;;1.93;1.40;;;9.60;99.90;;;;;;5055770;28;20249;-75
2021/01/20 10:42:14;;;;;;;3.00;1.03;;;9.60;1.00;;;;;;5038025;28;20203;-75
2021/01/20 10:44:41;;;;;;;2.57;1.20;;;9.70;1.00;;;;;;5011417;28;20315;-74
2021/01/20 10:47:07;;;;;;;1.33;1.10;;;9.60;99.90;;;;;;5021025;28;20270;-74
2021/01/20 10:49:34;;;;;;;1.80;1.30;;;9.60;1.00;;;;;;5004182;28;20282;-74
2021/01/20 10:52:01;;;;;;;3.27;1.70;;;9.70;1.00;;;;;;5031373;28;20199;-74
2021/01/20 10:54:27;;;;;;;3.43;1.37;;;9.60;99.90;;;;;;5025386;28;20205;-73
2021/01/20 10:56:54;;;;;;;2.63;1.30;;;9.60;99.90;;;;;;5018970;28;20680;-74
2021/01/20 10:59:20;;;;;;;2.40;1.20;;;9.60;28.70;;;;;;5002665;28;20193;-74
2021/01/20 11:01:46;;;;;;;2.00;1.17;;;9.60;99.90;;;;;;5004919;28;20277;-74
2021/01/20 11:04:16;;;;;;;1.97;1.20;;;9.50;1.00;;;;;;5021146;28;20205;-74
2021/01/20 11:06:42;;;;;;;3.33;1.60;;;9.50;1.00;;;;;;5014598;28;20688;-73
2021/01/20 11:09:08;;;;;;;2.10;1.10;;;9.60;1.00;;;;;;5013722;28;20342;-74
2021/01/20 11:11:35;;;;;;;3.30;1.27;;;9.60;1.00;;;;;;5008926;28;20201;-74
2021/01/20 11:14:01;;;;;;;1.87;1.17;;;9.60;1.00;;;;;;5028866;28;20291;-75
2021/01/20 11:16:27;;;;;;;2.00;1.07;;;9.60;1.00;;;;;;5022721;28;20668;-74
2021/01/20 11:18:54;;;;;;;2.33;1.27;;;9.70;1.00;;;;;;5010666;28;20263;-75
2021/01/20 11:21:21;;;;;;;1.50;1.20;;;9.60;1.00;;;;;;5019580;28;20217;-74
2021/01/20 11:23:47;;;;;;;2.53;1.43;;;9.60;1.00;;;;;;4992767;28;20224;-74
2021/01/20 11:26:13;;;;;;;2.93;1.60;;;9.60;1.00;;;;;;5009482;28;20197;-73
2021/01/20 11:28:40;;;;;;;1.90;1.40;;;9.60;1.00;;;;;;5027695;28;20220;-75
2021/01/20 11:31:06;;;;;;;3.37;1.53;;;9.60;1.00;;;;;;5014773;28;20203;-75
2021/01/20 11:33:36;;;;;;;2.00;1.33;;;9.70;1.00;;;;;;5023492;28;20314;-74
2021/01/20 11:36:05;;;;;;;2.53;1.30;;;9.70;1.00;;;;;;4991525;28;20627;-74
2021/01/20 11:38:32;;;;;;;1.77;1.20;;;9.60;1.00;;;;;;5015258;28;20209;-73
2021/01/20 11:40:58;;;;;;;1.77;0.93;;;9.60;1.00;;;;;;5037432;28;20329;-74
2021/01/20 11:43:26;;;;;;;3.03;1.27;;;9.60;1.00;;;;;;5006044;28;20211;-74
2021/01/20 11:45:52;;;;;;;2.80;1.20;;;9.60;1.00;;;;;;5029684;28;20208;-74
2021/01/20 11:48:19;;;;;;;2.20;1.00;;;9.60;1.00;;;;;;5033912;28;20217;-74
2021/01/20 11:50:46;;;;;;;3.93;1.33;;;9.60;1.00;;;;;;5041759;28;25761;-73
2021/01/20 11:53:20;;;;;;;2.17;1.37;;;9.60;1.00;;;;;;5040359;28;20227;-73
2021/01/20 11:55:46;;;;;;;2.10;1.47;;;9.60;1.00;;;;;;5023888;28;20373;-74
2021/01/20 11:58:13;;;;;;;1.83;1.63;;;9.60;1.00;;;;;;5033876;28;20208;-74
2021/01/20 12:00:39;;;;;;;5.07;1.50;;;9.60;1.00;;;;;;5034355;28;20256;-73
2021/01/20 12:03:06;;;;;;;4.43;1.30;;;9.60;1.00;;;;;;5036540;28;20297;-74
2021/01/20 12:05:32;;;;;;;1.80;1.00;;;9.60;1.00;;;;;;5029543;28;20236;-75
2021/01/20 12:07:59;;;;;;;4.77;1.57;;;9.60;1.00;;;;;;5032957;28;20223;-74
2021/01/20 12:10:25;;;;;;;2.07;1.07;;;9.60;1.00;;;;;;5026131;28;20254;-74
2021/01/20 12:12:52;;;;;;;2.40;1.33;;;9.60;1.00;;;;;;5029929;28;20527;-74
2021/01/20 12:15:19;;;;;;;1.37;0.90;;;9.50;1.00;;;;;;5024197;28;20199;-74
2021/01/20 12:17:46;;;;;;;2.87;1.03;;;9.50;99.90;;;;;;5042568;28;20207;-74
2021/01/20 12:21:08;;;;;;;1.37;0.90;;;9.50;99.90;;;;;;5038358;28;20575;-76
2021/01/20 12:23:47;;;;;;;1.30;1.10;;;9.50;99.90;;;;;;5026324;28;20223;-76
2021/01/20 12:26:14;;;;;;;2.97;1.50;;;9.50;99.90;;;;;;5022788;28;20205;-74
2021/01/20 12:28:40;;;;;;;3.20;1.10;;;9.50;99.90;;;;;;5036284;28;20246;-75
2021/01/20 12:31:06;;;;;;;2.30;1.30;;;9.50;99.90;;;;;;5019612;28;20255;-76
2021/01/20 12:33:33;;;;;;;3.47;1.20;;;9.50;99.90;;;;;;5039509;28;20226;-75
2021/01/20 12:35:59;;;;;;;3.07;0.90;;;9.60;1.00;;;;;;5034694;28;20228;-75
2021/01/20 12:38:26;;;;;;;3.77;1.40;;;9.60;99.90;;;;;;5021440;28;20631;-76
2021/01/20 12:40:52;;;;;;;2.00;1.17;;;9.60;93.60;;;;;;5040080;28;20204;-76
2021/01/20 12:43:18;;;;;;;3.20;1.40;;;9.70;99.90;;;;;;5038555;28;20234;-75
2021/01/20 12:45:45;;;;;;;2.33;1.50;;;9.70;99.90;;;;;;5035154;28;20227;-75
2021/01/20 12:48:12;;;;;;;1.77;1.27;;;9.80;99.90;;;;;;5039663;28;20225;-76
2021/01/20 12:50:39;;;;;;;2.43;1.13;;;9.80;85.30;;;;;;5036320;28;20214;-76
2021/01/20 12:53:06;;;;;;;3.00;1.40;;;9.80;99.90;;;;;;5035471;28;20217;-75
2021/01/20 12:55:32;;;;;;;3.57;1.60;;;9.80;99.90;;;;;;5039384;28;20213;-76
2021/01/20 12:57:58;;;;;;;2.20;1.17;;;9.80;99.90;;;;;;5036321;28;20215;-77
2021/01/20 13:00:26;;;;;;;5.03;1.40;;;9.90;1.00;;;;;;5036624;28;20235;-76
2021/01/20 13:02:52;;;;;;;1.83;1.30;;;9.90;1.00;;;;;;5020006;28;20208;-76
2021/01/20 13:05:19;;;;;;;2.70;1.17;;;10.00;1.00;;;;;;5020441;28;20220;-76
2021/01/20 13:07:45;;;;;;;2.13;1.40;;;10.00;1.00;;;;;;5033203;28;20760;-77
2021/01/20 13:10:12;;;;;;;2.27;1.27;;;10.00;1.00;;;;;;5034162;28;20208;-75